createdAt,value
2023-01-10T00:01:05.355Z,99121.41
2023-01-10T00:04:07.275Z,99118.56
2023-01-10T00:07:09.113Z,99117.03
2023-01-10T00:10:11.135Z,99105.66
2023-01-10T00:13:25.299Z,99116.47
2023-01-10T00:16:27.215Z,99118.03
2023-01-10T00:19:29.254Z,99114.28
2023-01-10T00:22:31.196Z,99109.28
2023-01-10T00:25:34.431Z,99114.06
2023-01-10T00:28:36.742Z,99110.03
2023-01-10T00:31:38.602Z,99113.16
2023-01-10T00:34:40.548Z,99107.63
2023-01-10T00:37:42.337Z,99093.06
2023-01-10T00:40:44.528Z,99085.25
2023-01-10T00:43:58.801Z,99101.37
2023-01-10T00:47:00.758Z,99097.28
2023-01-10T00:50:04.553Z,99091.31
2023-01-10T00:53:06.463Z,99104.84
2023-01-10T00:56:08.427Z,99102.75
2023-01-10T00:59:10.303Z,99098.94
2023-01-10T01:02:12.199Z,99107.53
2023-01-10T01:05:14.179Z,99105.97
2023-01-10T01:08:16.719Z,99108.47
2023-01-10T01:11:18.623Z,99105.97
2023-01-10T01:14:20.599Z,99105.03
2023-01-10T01:17:22.481Z,99101.34
2023-01-10T01:20:24.351Z,99100.19
2023-01-10T01:23:26.259Z,99097.56
2023-01-10T01:26:28.259Z,99095.97
2023-01-10T01:29:42.267Z,99099.44
2023-01-10T01:32:45.005Z,99095.59
2023-01-10T01:35:47.832Z,99096.38
2023-01-10T01:38:49.627Z,99098.97
2023-01-10T01:41:57.520Z,99094.19
2023-01-10T01:45:22.704Z,99091.41
2023-01-10T01:48:27.394Z,99095.06
2023-01-10T01:51:29.278Z,99096.72
2023-01-10T01:54:31.287Z,99089.22
2023-01-10T01:57:33.330Z,99091.97
2023-01-10T02:00:35.562Z,99094.13
2023-01-10T02:03:37.595Z,99102.50
2023-01-10T02:06:39.483Z,99102.53
2023-01-10T02:09:42.875Z,99109.78
2023-01-10T02:12:45.360Z,99122.81
2023-01-10T02:15:47.324Z,99117.87
2023-01-10T02:18:49.134Z,99114.81
2023-01-10T02:21:50.964Z,99123.28
2023-01-10T02:25:01.864Z,99124.72
2023-01-10T02:28:22.324Z,99124.81
2023-01-10T02:31:34.907Z,99118.16
2023-01-10T02:34:47.039Z,99116.13
2023-01-10T02:38:21.301Z,99107.56
2023-01-10T02:41:28.427Z,99107.28
2023-01-10T02:44:30.306Z,99112.25
2023-01-10T02:47:38.930Z,99111.19
2023-01-10T02:50:44.218Z,99102.69
2023-01-10T02:53:51.072Z,99105.09
2023-01-10T02:57:01.842Z,99105.62
2023-01-10T03:00:24.660Z,99114.69
2023-01-10T03:03:33.371Z,99115.53
2023-01-10T03:06:41.126Z,99116.97
2023-01-10T03:09:48.927Z,99120.66
2023-01-10T03:12:52.642Z,99124.28
2023-01-10T03:15:55.005Z,99133.81
2023-01-10T03:19:11.296Z,99138.44
2023-01-10T03:22:13.337Z,99131.78
2023-01-10T03:25:15.835Z,99134.53
2023-01-10T03:28:22.354Z,99141.06
2023-01-10T03:31:44.502Z,99132.59
2023-01-10T03:34:46.326Z,99135.44
2023-01-10T03:37:54.275Z,99137.34
2023-01-10T03:40:56.135Z,99134.84
2023-01-10T03:44:16.971Z,99140.78
2023-01-10T03:47:30.984Z,99132.50
2023-01-10T03:50:32.876Z,99146.34
2023-01-10T03:53:34.785Z,99141.19
2023-01-10T03:56:46.564Z,99142.25
2023-01-10T03:59:49.031Z,99153.50
2023-01-10T04:02:50.897Z,99154.91
2023-01-10T04:05:52.742Z,99154.09
2023-01-10T04:08:54.622Z,99169.16
2023-01-10T04:11:56.495Z,99167.19
2023-01-10T04:14:58.351Z,99175.72
2023-01-10T04:18:00.189Z,99161.72
2023-01-10T04:21:02.162Z,99145.63
2023-01-10T04:24:04.004Z,99134.53
2023-01-10T04:27:06.015Z,99149.66
2023-01-10T04:30:08.206Z,99151.03
2023-01-10T04:33:11.789Z,99159.88
2023-01-10T04:36:13.680Z,99144.09
2023-01-10T04:39:15.792Z,99141.09
2023-01-10T04:42:18.117Z,99154.28
2023-01-10T04:45:21.877Z,99154.19
2023-01-10T04:48:23.744Z,99158.72
2023-01-10T04:51:26.116Z,99170.84
2023-01-10T04:54:27.997Z,99174.28
2023-01-10T04:57:29.871Z,99185.25
2023-01-10T05:00:31.692Z,99192.47
2023-01-10T05:03:33.721Z,99194.69
2023-01-10T05:06:35.715Z,99194.94
2023-01-10T05:09:37.547Z,99204.03
2023-01-10T05:12:39.591Z,99214.19
2023-01-10T05:15:41.479Z,99214.63
2023-01-10T05:18:43.513Z,99212.41
2023-01-10T05:21:45.391Z,99227.50
2023-01-10T05:24:47.276Z,99225.44
2023-01-10T05:27:49.221Z,99235.94
2023-01-10T05:30:51.124Z,99239.13
2023-01-10T05:33:53.160Z,99241.53
2023-01-10T05:36:55.057Z,99240.38
2023-01-10T05:39:56.861Z,99247.25
2023-01-10T05:42:58.755Z,99233.75
2023-01-10T05:46:00.607Z,99237.44
2023-01-10T05:49:02.511Z,99220.47
2023-01-10T05:52:04.411Z,99229.75
2023-01-10T05:55:06.485Z,99239.84
2023-01-10T05:58:11.136Z,99252.81
2023-01-10T06:01:13.249Z,99254.06
2023-01-10T06:04:15.233Z,99261.13
2023-01-10T06:07:17.195Z,99265.06
2023-01-10T06:10:19.128Z,99267.72
2023-01-10T06:13:21.099Z,99270.31
2023-01-10T06:16:23.010Z,99283.91
2023-01-10T06:19:24.884Z,99287.44
2023-01-10T06:22:28.109Z,99294.78
2023-01-10T06:25:30.262Z,99303.25
2023-01-10T06:28:32.332Z,99309.31
2023-01-10T06:31:34.582Z,99308.28
2023-01-10T06:34:36.508Z,99323.97
2023-01-10T06:37:38.563Z,99332.06
2023-01-10T06:40:41.339Z,99332.19
2023-01-10T06:43:45.505Z,99332.84
2023-01-10T06:46:47.481Z,99331.06
2023-01-10T06:49:49.375Z,99318.78
2023-01-10T06:53:01.965Z,99332.56
2023-01-10T06:56:06.281Z,99326.50
2023-01-10T06:59:08.789Z,99337.16
2023-01-10T07:02:11.753Z,99348.97
2023-01-10T07:05:13.690Z,99358.81
2023-01-10T07:08:15.804Z,99358.91
2023-01-10T07:11:18.048Z,99368.84
2023-01-10T07:14:20.111Z,99379.50
2023-01-10T07:17:22.021Z,99391.00
2023-01-10T07:20:24.331Z,99396.44
2023-01-10T07:23:27.081Z,99408.75
2023-01-10T07:26:29.883Z,99407.91
2023-01-10T07:29:31.992Z,99408.94
2023-01-10T07:32:34.173Z,99408.13
2023-01-10T07:35:36.742Z,99413.69
2023-01-10T07:38:38.762Z,99410.94
2023-01-10T07:41:40.830Z,99422.78
2023-01-10T07:44:42.803Z,99432.47
2023-01-10T07:47:45.232Z,99442.28
2023-01-10T07:50:47.327Z,99447.69
2023-01-10T07:53:51.357Z,99461.56
2023-01-10T07:56:53.388Z,99465.31
2023-01-10T07:59:55.301Z,99474.28
2023-01-10T08:02:57.671Z,99483.91
2023-01-10T08:06:06.912Z,99492.44
2023-01-10T08:09:08.944Z,99496.72
2023-01-10T08:12:10.976Z,99503.94
2023-01-10T08:15:12.881Z,99505.91
2023-01-10T08:18:14.870Z,99508.56
2023-01-10T08:21:16.798Z,99529.16
2023-01-10T08:24:18.691Z,99538.63
2023-01-10T08:27:20.601Z,99543.63
2023-01-10T08:30:23.264Z,99540.19
2023-01-10T08:33:25.487Z,99562.94
2023-01-10T08:36:29.169Z,99560.13
2023-01-10T08:39:32.279Z,99553.38
2023-01-10T08:42:34.940Z,99560.63
2023-01-10T08:45:37.647Z,99576.53
2023-01-10T08:48:39.639Z,99583.50
2023-01-10T08:51:41.461Z,99587.38
2023-01-10T08:54:43.704Z,99596.87
2023-01-10T08:57:46.066Z,99605.13
2023-01-10T09:00:49.694Z,99604.37
2023-01-10T09:03:52.105Z,99621.03
2023-01-10T09:06:54.565Z,99620.97
2023-01-10T09:09:56.485Z,99625.72
2023-01-10T09:13:02.167Z,99633.56
2023-01-10T09:16:04.557Z,99644.94
2023-01-10T09:19:07.330Z,99647.34
2023-01-10T09:22:09.438Z,99652.75
2023-01-10T09:25:11.414Z,99669.69
2023-01-10T09:28:13.715Z,99668.22
2023-01-10T09:31:15.635Z,99678.19
2023-01-10T09:34:17.590Z,99675.28
2023-01-10T09:37:19.721Z,99697.25
2023-01-10T09:40:25.568Z,99696.19
2023-01-10T09:43:45.624Z,99695.75
2023-01-10T09:47:00.933Z,99713.44
2023-01-10T09:50:20.924Z,99716.31
2023-01-10T09:53:25.090Z,99722.03
2023-01-10T09:56:27.726Z,99732.41
2023-01-10T09:59:36.066Z,99733.87
2023-01-10T10:02:42.433Z,99738.09
2023-01-10T10:05:45.381Z,99744.19
2023-01-10T10:08:47.255Z,99745.34
2023-01-10T10:11:58.821Z,99753.44
2023-01-10T10:15:03.862Z,99743.91
2023-01-10T10:18:06.182Z,99751.34
2023-01-10T10:21:17.866Z,99744.94
2023-01-10T10:24:36.410Z,99751.53
2023-01-10T10:27:47.984Z,99757.28
2023-01-10T10:31:15.031Z,99741.00
2023-01-10T10:34:49.658Z,99759.06
2023-01-10T10:37:52.484Z,99774.00
2023-01-10T10:40:54.426Z,99780.03
2023-01-10T10:43:56.590Z,99786.41
2023-01-10T10:46:59.461Z,99796.31
2023-01-10T10:50:16.035Z,99795.16
2023-01-10T10:53:19.345Z,99811.72
2023-01-10T10:56:21.964Z,99806.84
2023-01-10T10:59:24.016Z,99813.91
2023-01-10T11:02:33.117Z,99808.97
2023-01-10T11:05:42.399Z,99815.38
2023-01-10T11:08:46.031Z,99830.97
2023-01-10T11:11:51.151Z,99839.69
2023-01-10T11:14:54.059Z,99848.84
2023-01-10T11:18:04.490Z,99845.97
2023-01-10T11:21:07.272Z,99857.22
2023-01-10T11:24:32.480Z,99857.31
2023-01-10T11:27:37.035Z,99864.75
2023-01-10T11:30:39.111Z,99857.25
2023-01-10T11:33:41.174Z,99868.03
2023-01-10T11:37:02.438Z,99865.63
2023-01-10T11:40:27.835Z,99881.19
2023-01-10T11:43:37.575Z,99868.53
2023-01-10T11:46:40.079Z,99873.59
2023-01-10T11:49:43.830Z,99881.44
2023-01-10T11:52:45.909Z,99872.06
2023-01-10T11:55:47.930Z,99879.75
2023-01-10T11:58:50.267Z,99882.62
2023-01-10T12:02:10.624Z,99882.66
2023-01-10T12:05:20.013Z,99900.81
2023-01-10T12:08:26.541Z,99894.22
2023-01-10T12:11:32.467Z,99900.88
2023-01-10T12:14:34.684Z,99903.50
2023-01-10T12:17:37.187Z,99915.03
2023-01-10T12:20:45.192Z,99915.44
2023-01-10T12:23:47.786Z,99911.09
2023-01-10T12:26:52.299Z,99907.94
2023-01-10T12:29:58.659Z,99909.50
2023-01-10T12:33:01.220Z,99927.47
2023-01-10T12:36:22.246Z,99937.56
2023-01-10T12:39:30.411Z,99939.22
2023-01-10T12:42:51.204Z,99948.16
2023-01-10T12:45:57.205Z,99947.66
2023-01-10T12:49:02.482Z,99968.44
2023-01-10T12:52:08.290Z,99968.78
2023-01-10T12:55:17.249Z,99975.31
2023-01-10T12:58:36.365Z,99980.50
2023-01-10T13:01:40.675Z,99973.84
2023-01-10T13:04:42.907Z,99976.41
2023-01-10T13:07:44.791Z,99983.59
2023-01-10T13:10:47.811Z,99980.56
2023-01-10T13:13:52.448Z,99993.87
2023-01-10T13:17:23.941Z,99991.91
2023-01-10T13:20:27.189Z,100006.44
2023-01-10T13:23:30.803Z,100000.03
2023-01-10T13:26:55.885Z,100007.16
2023-01-10T13:29:57.727Z,100015.66
2023-01-10T13:33:01.255Z,100014.47
2023-01-10T13:36:12.881Z,100027.25
2023-01-10T13:39:25.161Z,100033.69
2023-01-10T13:42:49.856Z,100039.31
2023-01-10T13:46:08.113Z,100043.87
2023-01-10T13:49:10.043Z,100058.13
2023-01-10T13:52:28.643Z,100067.00
2023-01-10T13:55:34.770Z,100064.53
2023-01-10T13:58:59.922Z,100059.56
2023-01-10T14:02:20.682Z,100060.66
2023-01-10T14:05:22.776Z,100082.06
2023-01-10T14:08:24.729Z,100080.63
2023-01-10T14:11:27.624Z,100082.31
2023-01-10T14:14:34.024Z,100082.13
2023-01-10T14:17:36.199Z,100088.50
2023-01-10T14:20:38.537Z,100097.16
2023-01-10T14:23:41.418Z,100109.25
2023-01-10T14:26:44.320Z,100112.38
2023-01-10T14:29:59.283Z,100110.94
2023-01-10T14:33:08.274Z,100115.13
2023-01-10T14:36:14.522Z,100128.69
2023-01-10T14:39:16.613Z,100138.59
2023-01-10T14:42:18.522Z,100147.97
2023-01-10T14:45:24.055Z,100145.03
2023-01-10T14:48:33.386Z,100160.62
2023-01-10T14:51:35.309Z,100160.69
2023-01-10T14:54:37.236Z,100173.66
2023-01-10T14:57:39.142Z,100176.84
2023-01-10T15:00:43.819Z,100160.28
2023-01-10T15:03:46.306Z,100178.19
2023-01-10T15:06:52.059Z,100178.22
2023-01-10T15:09:56.714Z,100179.19
2023-01-10T15:13:00.454Z,100191.94
2023-01-10T15:16:02.553Z,100196.94
2023-01-10T15:19:04.673Z,100196.53
2023-01-10T15:22:16.613Z,100197.47
2023-01-10T15:25:18.531Z,100203.47
2023-01-10T15:28:20.737Z,100207.91
2023-01-10T15:31:22.654Z,100215.94
2023-01-10T15:34:27.031Z,100219.56
2023-01-10T15:37:35.271Z,100219.69
2023-01-10T15:40:37.793Z,100232.47
2023-01-10T15:43:40.355Z,100239.00
2023-01-10T15:46:53.990Z,100242.03
2023-01-10T15:49:55.942Z,100251.06
2023-01-10T15:53:01.616Z,100257.66
2023-01-10T15:56:13.583Z,100257.72
2023-01-10T15:59:27.917Z,100258.44
2023-01-10T16:02:30.988Z,100256.28
2023-01-10T16:05:32.997Z,100269.12
2023-01-10T16:08:35.384Z,100266.97
2023-01-10T16:12:05.778Z,100267.50
2023-01-10T16:15:26.541Z,100280.53
2023-01-10T16:18:28.732Z,100274.25
2023-01-10T16:21:39.425Z,100287.59
2023-01-10T16:24:41.380Z,100290.06
2023-01-10T16:27:43.466Z,100290.38
2023-01-10T16:30:46.760Z,100288.28
2023-01-10T16:33:49.286Z,100286.53
2023-01-10T16:36:51.366Z,100294.66
2023-01-10T16:39:53.265Z,100296.94
2023-01-10T16:43:14.258Z,100300.72
2023-01-10T16:46:16.298Z,100314.38
2023-01-10T16:49:18.283Z,100307.16
2023-01-10T16:52:20.168Z,100324.50
2023-01-10T16:55:26.487Z,100324.03
2023-01-10T16:58:28.409Z,100330.09
2023-01-10T17:01:38.095Z,100333.72
2023-01-10T17:04:40.239Z,100338.34
2023-01-10T17:07:42.159Z,100348.00
2023-01-10T17:10:44.079Z,100341.94
2023-01-10T17:13:46.035Z,100341.69
2023-01-10T17:16:48.677Z,100345.75
2023-01-10T17:19:50.644Z,100345.94
2023-01-10T17:22:52.538Z,100346.13
2023-01-10T17:26:01.350Z,100355.91
2023-01-10T17:29:03.207Z,100355.13
2023-01-10T17:32:05.451Z,100355.50
2023-01-10T17:35:08.002Z,100363.09
2023-01-10T17:38:10.644Z,100362.81
2023-01-10T17:41:12.619Z,100375.09
2023-01-10T17:44:14.525Z,100385.28
2023-01-10T17:47:16.487Z,100391.25
2023-01-10T17:50:19.136Z,100385.19
2023-01-10T17:53:21.115Z,100388.00
2023-01-10T17:56:23.096Z,100384.84
2023-01-10T17:59:24.997Z,100390.47
2023-01-10T18:02:27.209Z,100366.69
2023-01-10T18:05:29.269Z,100394.50
2023-01-10T18:08:31.241Z,100382.22
2023-01-10T18:11:33.764Z,100400.78
2023-01-10T18:14:38.731Z,100406.00
2023-01-10T18:17:40.603Z,100415.31
2023-01-10T18:20:43.019Z,100409.50
2023-01-10T18:23:45.136Z,100419.63
2023-01-10T18:26:47.285Z,100416.16
2023-01-10T18:29:52.555Z,100424.00
2023-01-10T18:32:54.532Z,100421.34
2023-01-10T18:35:57.579Z,100424.97
2023-01-10T18:38:59.577Z,100428.41
2023-01-10T18:42:01.500Z,100428.19
2023-01-10T18:45:04.205Z,100446.91
2023-01-10T18:48:06.463Z,100447.47
2023-01-10T18:51:10.102Z,100449.50
2023-01-10T18:54:11.976Z,100449.66
2023-01-10T18:57:14.225Z,100451.53
2023-01-10T19:00:16.492Z,100448.59
2023-01-10T19:03:18.382Z,100447.00
2023-01-10T19:06:22.651Z,100443.19
2023-01-10T19:09:24.612Z,100445.00
2023-01-10T19:12:26.879Z,100439.34
2023-01-10T19:15:28.885Z,100432.31
2023-01-10T19:18:30.730Z,100446.91
2023-01-10T19:21:33.072Z,100444.13
2023-01-10T19:24:37.741Z,100435.81
2023-01-10T19:27:39.637Z,100438.06
2023-01-10T19:30:41.692Z,100444.09
2023-01-10T19:33:44.244Z,100450.41
2023-01-10T19:36:46.116Z,100448.59
2023-01-10T19:39:48.345Z,100453.75
2023-01-10T19:42:50.188Z,100461.91
2023-01-10T19:45:52.604Z,100467.47
2023-01-10T19:48:58.030Z,100471.13
2023-01-10T19:51:59.962Z,100469.75
2023-01-10T19:55:01.923Z,100469.53
2023-01-10T19:58:03.934Z,100479.19
2023-01-10T20:01:13.111Z,100476.31
2023-01-10T20:04:15.335Z,100467.06
2023-01-10T20:07:18.720Z,100477.16
2023-01-10T20:10:20.859Z,100478.56
2023-01-10T20:13:22.721Z,100480.81
2023-01-10T20:16:24.686Z,100489.91
2023-01-10T20:19:26.827Z,100480.19
2023-01-10T20:22:28.852Z,100489.44
2023-01-10T20:25:30.687Z,100489.59
2023-01-10T20:28:33.188Z,100497.28
2023-01-10T20:31:35.172Z,100494.97
2023-01-10T20:34:37.915Z,100490.09
2023-01-10T20:37:39.716Z,100507.41
2023-01-10T20:40:41.589Z,100506.13
2023-01-10T20:43:44.129Z,100511.22
2023-01-10T20:46:46.092Z,100517.25
2023-01-10T20:49:47.967Z,100515.28
2023-01-10T20:52:49.899Z,100515.25
2023-01-10T20:55:59.719Z,100519.97
2023-01-10T20:59:02.147Z,100506.59
2023-01-10T21:02:04.106Z,100521.03
2023-01-10T21:05:06.084Z,100515.47
2023-01-10T21:08:07.905Z,100514.87
2023-01-10T21:11:10.876Z,100517.28
2023-01-10T21:14:13.262Z,100513.69
2023-01-10T21:17:15.287Z,100522.41
2023-01-10T21:20:17.244Z,100516.94
2023-01-10T21:23:20.427Z,100528.78
2023-01-10T21:26:22.480Z,100521.22
2023-01-10T21:29:24.372Z,100526.19
2023-01-10T21:32:26.325Z,100526.31
2023-01-10T21:35:28.134Z,100529.75
2023-01-10T21:38:30.146Z,100513.41
2023-01-10T21:41:50.826Z,100522.16
2023-01-10T21:44:52.673Z,100524.66
2023-01-10T21:47:54.558Z,100523.75
2023-01-10T21:50:57.740Z,100517.75
2023-01-10T21:54:00.022Z,100521.87
2023-01-10T21:57:02.029Z,100519.22
2023-01-10T22:00:04.358Z,100515.00
2023-01-10T22:03:06.254Z,100515.59
2023-01-10T22:06:08.268Z,100509.44
2023-01-10T22:09:11.033Z,100510.09
2023-01-10T22:12:12.885Z,100516.13
2023-01-10T22:15:14.791Z,100509.78
2023-01-10T22:18:16.727Z,100515.28
2023-01-10T22:21:19.877Z,100522.53
2023-01-10T22:24:21.769Z,100523.88
2023-01-10T22:27:23.594Z,100527.91
2023-01-10T22:30:25.485Z,100530.44
2023-01-10T22:33:31.241Z,100541.41
2023-01-10T22:36:33.421Z,100532.00
2023-01-10T22:39:35.247Z,100523.28
2023-01-10T22:42:37.131Z,100525.22
2023-01-10T22:45:42.731Z,100527.72
2023-01-10T22:48:44.792Z,100522.31
2023-01-10T22:51:46.816Z,100529.25
2023-01-10T22:54:48.690Z,100519.78
2023-01-10T22:57:50.551Z,100525.22
2023-01-10T23:00:52.384Z,100527.34
2023-01-10T23:03:54.355Z,100532.66
2023-01-10T23:06:56.886Z,100533.34
2023-01-10T23:09:58.925Z,100537.81
2023-01-10T23:13:02.264Z,100535.47
2023-01-10T23:16:05.533Z,100540.75
2023-01-10T23:19:07.475Z,100540.78
2023-01-10T23:22:09.444Z,100543.81
2023-01-10T23:25:11.290Z,100527.72
2023-01-10T23:28:13.212Z,100535.56
2023-01-10T23:31:16.258Z,100538.28
2023-01-10T23:34:18.165Z,100545.87
2023-01-10T23:37:19.959Z,100539.78
2023-01-10T23:40:21.833Z,100531.16
2023-01-10T23:43:23.886Z,100544.41
2023-01-10T23:46:25.840Z,100544.34
2023-01-10T23:49:27.735Z,100539.50
2023-01-10T23:52:29.726Z,100544.16
2023-01-10T23:55:32.102Z,100539.88
2023-01-10T23:58:34.165Z,100530.81
